Time;durP1;ratioP1;P1;durP2;ratioP2;P2;SDS_P1;SDS_P2;PMS_P1;PMS_P2;Temp;Humidity;BMP_temperature;BMP_pressure;BME280_temperature;BME280_humidity;BME280_pressure;Samples;Min_cycle;Max_cycle;Signal;HPM_P1;HPM_P2
2022/01/11 00:00:30;;;;;;;323.15;50.97;;;-0.50;99.90;;;;;;4843166;29;20140;-87
2022/01/11 00:02:56;;;;;;;252.90;45.10;;;-0.50;99.90;;;;;;4843802;29;20041;-87
2022/01/11 00:05:28;;;;;;;243.30;40.55;;;-0.50;99.90;;;;;;4859930;29;20045;-85
2022/01/11 00:07:55;;;;;;;219.70;42.87;;;-0.10;99.90;;;;;;4862784;29;20045;-85
2022/01/11 00:10:27;;;;;;;211.18;43.30;;;-0.60;99.90;;;;;;4861419;29;20361;-86
2022/01/11 00:12:54;;;;;;;295.60;54.47;;;-0.60;99.90;;;;;;4862979;29;20488;-86
2022/01/11 00:15:20;;;;;;;258.42;46.88;;;-0.60;99.90;;;;;;4877414;29;20504;-86
2022/01/11 00:17:46;;;;;;;283.00;52.15;;;-0.60;99.90;;;;;;4862246;29;20590;-86
2022/01/11 00:20:15;;;;;;;218.20;42.55;;;0.40;99.90;;;;;;4845037;29;20116;-86
2022/01/11 00:24:26;;;;;;;195.73;43.63;;;-0.60;99.90;;;;;;4859024;29;20048;-86
2022/01/11 00:25:30;;;;;;;187.15;39.63;;;-0.70;99.90;;;;;;4859883;29;20169;-87
2022/01/11 00:27:56;;;;;;;301.13;50.15;;;-0.70;99.90;;;;;;4859504;29;20906;-86
2022/01/11 00:30:23;;;;;;;282.15;50.53;;;-0.70;99.90;;;;;;4858358;29;20060;-86
2022/01/11 00:32:53;;;;;;;285.00;50.17;;;-0.70;99.90;;;;;;4859608;29;20481;-87
2022/01/11 00:35:27;;;;;;;226.77;44.60;;;-0.70;99.90;;;;;;4858986;29;20493;-87
2022/01/11 00:37:55;;;;;;;189.80;40.13;;;-0.80;99.90;;;;;;4858642;29;20049;-87
2022/01/11 00:40:21;;;;;;;242.48;46.45;;;-0.70;99.90;;;;;;4844185;29;20052;-86
2022/01/11 00:42:47;;;;;;;207.57;43.10;;;-0.80;99.90;;;;;;4858888;29;20131;-86
2022/01/11 00:45:13;;;;;;;167.35;39.20;;;-0.80;99.90;;;;;;4859143;29;20469;-87
2022/01/11 00:47:40;;;;;;;170.55;39.13;;;-0.80;99.90;;;;;;4858918;29;20084;-87
2022/01/11 00:50:08;;;;;;;189.85;40.35;;;-0.80;99.90;;;;;;4858970;29;20071;-87
2022/01/11 00:52:34;;;;;;;162.60;36.95;;;-0.90;99.90;;;;;;4843107;29;20485;-86
2022/01/11 00:55:00;;;;;;;124.72;36.90;;;-0.90;99.90;;;;;;4846776;29;20044;-87
2022/01/11 00:57:26;;;;;;;169.10;40.42;;;-0.90;99.90;;;;;;4862106;29;20041;-87
2022/01/11 00:59:53;;;;;;;202.07;43.92;;;-0.90;99.90;;;;;;4876701;29;20113;-86
2022/01/11 01:02:19;;;;;;;220.57;41.75;;;-0.90;99.90;;;;;;4861763;29;20523;-87
2022/01/11 01:04:45;;;;;;;207.52;43.95;;;-1.00;99.90;;;;;;4876558;29;20045;-87
2022/01/11 01:07:10;;;;;;;174.88;40.55;;;-1.00;99.90;;;;;;4861834;29;20037;-87
2022/01/11 01:09:54;;;;;;;178.90;41.03;;;-1.00;99.90;;;;;;4877400;29;20041;-87
2022/01/11 01:12:20;;;;;;;193.93;43.13;;;-1.00;99.90;;;;;;4861146;29;20053;-87
2022/01/11 01:14:46;;;;;;;115.38;35.28;;;-1.00;99.90;;;;;;4861421;29;20054;-87
2022/01/11 01:17:11;;;;;;;198.40;43.25;;;-1.00;99.90;;;;;;4877357;29;20052;-87
2022/01/11 01:19:37;;;;;;;165.95;40.63;;;-1.00;99.90;;;;;;4876441;29;20100;-87
2022/01/11 01:22:03;;;;;;;171.63;42.95;;;-1.00;99.90;;;;;;4861334;29;20566;-87
2022/01/11 01:24:29;;;;;;;171.50;40.28;;;-1.00;99.90;;;;;;4861832;29;20060;-87
2022/01/11 01:26:55;;;;;;;175.05;38.63;;;-1.00;99.90;;;;;;4875995;29;20492;-86
2022/01/11 01:29:20;;;;;;;142.93;38.95;;;-1.00;99.90;;;;;;4861724;29;20049;-86
2022/01/11 01:31:49;;;;;;;130.00;35.45;;;-1.00;99.90;;;;;;4861177;29;20132;-86
2022/01/11 01:34:15;;;;;;;171.82;39.63;;;-0.60;99.90;;;;;;4860182;29;20493;-85
2022/01/11 01:36:40;;;;;;;162.07;38.00;;;-1.00;99.90;;;;;;4861029;29;20049;-86
2022/01/11 01:39:06;;;;;;;218.60;43.08;;;-1.10;99.90;;;;;;4876819;29;20044;-87
2022/01/11 01:41:32;;;;;;;152.10;38.85;;;-1.10;99.90;;;;;;4876505;29;20063;-87
2022/01/11 01:44:01;;;;;;;123.38;38.38;;;-1.10;99.90;;;;;;4861243;29;20048;-87
2022/01/11 01:46:27;;;;;;;111.05;40.10;;;-1.10;99.90;;;;;;4857957;29;20049;-86
2022/01/11 01:48:55;;;;;;;82.35;37.88;;;-1.20;99.90;;;;;;4841871;29;20045;-87
2022/01/11 01:51:21;;;;;;;106.70;40.63;;;-1.20;99.90;;;;;;4842987;29;20059;-88
2022/01/11 01:53:49;;;;;;;86.00;35.50;;;-1.20;99.90;;;;;;4843433;29;20053;-88
2022/01/11 01:56:17;;;;;;;76.82;37.03;;;-1.30;99.90;;;;;;4843060;29;20084;-88
2022/01/11 01:58:43;;;;;;;74.05;36.25;;;-1.20;99.90;;;;;;4843149;29;20053;-87
2022/01/11 02:01:12;;;;;;;98.43;37.67;;;-1.20;99.90;;;;;;4857328;29;20179;-87
2022/01/11 02:03:39;;;;;;;112.70;38.30;;;-1.30;99.90;;;;;;4842626;29;20112;-86
2022/01/11 02:06:08;;;;;;;75.78;35.75;;;-1.20;99.90;;;;;;4857614;29;20089;-87
2022/01/11 02:08:35;;;;;;;100.22;40.28;;;-1.20;99.90;;;;;;4842027;29;20841;-87
2022/01/11 02:11:01;;;;;;;109.22;39.30;;;-0.50;99.90;;;;;;4842080;29;20051;-87
2022/01/11 02:13:27;;;;;;;132.95;44.05;;;-1.20;99.90;;;;;;4858277;29;20445;-87
2022/01/11 02:15:53;;;;;;;110.85;41.72;;;-1.10;99.90;;;;;;4841527;29;20474;-87
2022/01/11 02:18:25;;;;;;;98.22;36.92;;;-1.10;99.90;;;;;;4842383;29;20045;-87
2022/01/11 02:20:52;;;;;;;153.00;43.63;;;-1.10;99.90;;;;;;4857582;29;20065;-87
2022/01/11 02:23:19;;;;;;;116.45;38.90;;;-1.10;99.90;;;;;;4856425;29;20127;-87
2022/01/11 02:25:45;;;;;;;81.22;35.15;;;-1.10;99.90;;;;;;4842354;29;20053;-87
2022/01/11 02:28:16;;;;;;;95.15;39.03;;;-1.10;99.90;;;;;;4857580;29;20053;-87
2022/01/11 02:30:43;;;;;;;80.28;33.30;;;-1.10;99.90;;;;;;4856936;29;20049;-88
2022/01/11 02:33:20;;;;;;;149.50;39.58;;;-1.10;99.90;;;;;;4842265;29;20053;-86
2022/01/11 02:35:49;;;;;;;173.10;40.38;;;-1.10;99.90;;;;;;4841554;29;20064;-87
2022/01/11 02:38:15;;;;;;;164.30;39.83;;;-1.10;99.90;;;;;;4857175;29;20037;-87
2022/01/11 02:40:42;;;;;;;136.45;36.55;;;-1.10;99.90;;;;;;4841935;29;20481;-87
2022/01/11 02:43:08;;;;;;;164.50;40.05;;;-1.00;99.90;;;;;;4857311;29;20108;-87
2022/01/11 02:45:34;;;;;;;209.07;40.88;;;-1.00;99.90;;;;;;4856784;29;20049;-87
2022/01/11 02:48:00;;;;;;;149.18;36.63;;;-1.00;99.90;;;;;;4841447;29;20057;-86
2022/01/11 02:50:25;;;;;;;210.05;41.83;;;-0.90;99.90;;;;;;4856351;29;20044;-87
2022/01/11 02:52:52;;;;;;;282.13;45.03;;;-0.90;99.90;;;;;;4857114;29;20585;-87
2022/01/11 02:55:18;;;;;;;410.35;57.35;;;-0.90;99.90;;;;;;4857228;29;20053;-86
2022/01/11 02:57:44;;;;;;;270.08;48.20;;;-0.90;99.90;;;;;;4841151;29;20090;-86
2022/01/11 03:00:15;;;;;;;322.90;49.78;;;-0.10;99.90;;;;;;4857136;29;20060;-87
2022/01/11 03:02:41;;;;;;;205.25;43.88;;;-0.80;99.90;;;;;;4841567;29;20045;-86
2022/01/11 03:05:10;;;;;;;234.80;41.97;;;-0.80;99.90;;;;;;4840654;29;20052;-87
2022/01/11 03:07:36;;;;;;;335.90;52.80;;;-0.80;99.90;;;;;;4841909;29;20048;-88
2022/01/11 03:10:14;;;;;;;390.58;55.90;;;-0.70;99.90;;;;;;4841807;29;20113;-87
2022/01/11 03:12:43;;;;;;;272.23;47.65;;;-0.70;99.90;;;;;;4840806;29;20132;-87
2022/01/11 03:15:09;;;;;;;309.75;49.67;;;-0.70;99.90;;;;;;4857446;29;20052;-87
2022/01/11 03:17:35;;;;;;;290.90;47.03;;;-0.70;99.90;;;;;;4841405;29;20134;-87
2022/01/11 03:20:00;;;;;;;205.75;40.15;;;-0.70;99.90;;;;;;4855815;29;20053;-87
2022/01/11 03:22:26;;;;;;;229.73;43.13;;;-0.70;99.90;;;;;;4841522;29;20060;-87
2022/01/11 03:24:51;;;;;;;176.45;41.30;;;-0.70;99.90;;;;;;4858882;29;20053;-87
2022/01/11 03:27:17;;;;;;;278.70;52.53;;;-0.70;99.90;;;;;;4857075;29;20045;-87
2022/01/11 03:29:43;;;;;;;197.02;42.20;;;-0.70;99.90;;;;;;4841723;29;20386;-86
2022/01/11 03:32:12;;;;;;;253.00;42.72;;;0.10;99.90;;;;;;4840943;29;20456;-86
2022/01/11 03:34:38;;;;;;;179.88;39.13;;;-0.60;99.90;;;;;;4841549;29;20413;-86
2022/01/11 03:37:04;;;;;;;188.77;40.72;;;-0.60;99.90;;;;;;4845035;29;20056;-87
2022/01/11 03:39:30;;;;;;;194.32;42.30;;;-0.60;99.90;;;;;;4860159;29;20055;-87
2022/01/11 03:41:55;;;;;;;178.20;43.10;;;-0.70;99.90;;;;;;4844915;29;20132;-87
2022/01/11 03:44:21;;;;;;;191.48;41.88;;;-0.60;99.90;;;;;;4859960;29;20462;-86
2022/01/11 03:46:47;;;;;;;263.83;49.35;;;-0.70;99.90;;;;;;4843926;29;20056;-87
2022/01/11 03:49:12;;;;;;;176.50;40.95;;;-0.70;99.90;;;;;;4844501;29;20106;-86
2022/01/11 03:51:39;;;;;;;402.05;57.45;;;-0.70;99.90;;;;;;4845092;29;20045;-87
2022/01/11 03:54:15;;;;;;;311.15;51.50;;;-0.60;99.90;;;;;;4844447;29;20041;-87
2022/01/11 03:56:41;;;;;;;247.32;43.08;;;-0.60;99.90;;;;;;4857814;29;20443;-86
2022/01/11 03:59:07;;;;;;;244.70;46.35;;;-0.60;99.90;;;;;;4860527;29;20060;-87
2022/01/11 04:01:36;;;;;;;255.35;47.28;;;-0.60;99.90;;;;;;4859065;29;20117;-87
2022/01/11 04:04:03;;;;;;;327.70;50.63;;;-0.60;99.90;;;;;;4859765;29;20053;-87
2022/01/11 04:06:28;;;;;;;437.33;60.80;;;-0.60;99.90;;;;;;4860093;29;20048;-87
2022/01/11 04:08:54;;;;;;;273.15;45.60;;;-0.60;99.90;;;;;;4861164;29;20049;-87
2022/01/11 04:11:20;;;;;;;208.77;41.67;;;-0.60;99.90;;;;;;4844207;29;20053;-87
2022/01/11 04:13:46;;;;;;;242.68;44.75;;;-0.60;99.90;;;;;;4859986;29;20104;-87
2022/01/11 04:16:12;;;;;;;251.45;47.08;;;-0.60;99.90;;;;;;4858954;29;20109;-87
2022/01/11 04:18:38;;;;;;;311.67;50.95;;;-0.60;99.90;;;;;;4844562;29;20053;-87
2022/01/11 04:21:04;;;;;;;355.95;52.33;;;-0.60;99.90;;;;;;4844193;29;20546;-86
2022/01/11 04:23:31;;;;;;;166.93;40.78;;;-0.60;99.90;;;;;;4861970;29;20040;-87
2022/01/11 04:25:57;;;;;;;198.88;43.10;;;-0.60;99.90;;;;;;4863166;29;20056;-87
2022/01/11 04:28:23;;;;;;;253.07;45.83;;;-0.60;99.90;;;;;;4877921;29;20381;-87
2022/01/11 04:30:50;;;;;;;321.83;49.65;;;-0.60;99.90;;;;;;4861796;29;20055;-88
2022/01/11 04:33:16;;;;;;;224.05;46.22;;;-0.60;99.90;;;;;;4862367;29;20056;-87
2022/01/11 04:35:44;;;;;;;155.75;40.83;;;-0.60;99.90;;;;;;4858335;29;20509;-87
2022/01/11 04:38:10;;;;;;;172.57;40.75;;;-0.60;99.90;;;;;;4844369;29;20081;-86
2022/01/11 04:40:36;;;;;;;182.63;40.97;;;-0.60;99.90;;;;;;4843539;29;20091;-86
2022/01/11 04:43:02;;;;;;;191.90;41.42;;;-0.60;99.90;;;;;;4856631;29;20047;-86
2022/01/11 04:45:27;;;;;;;217.63;42.45;;;-0.50;99.90;;;;;;4860938;29;20382;-87
2022/01/11 04:47:56;;;;;;;230.63;46.55;;;-0.60;99.90;;;;;;4877889;29;20163;-87
2022/01/11 04:50:25;;;;;;;247.85;47.22;;;-0.60;99.90;;;;;;4876317;29;20139;-87
2022/01/11 04:52:51;;;;;;;185.48;41.25;;;-0.60;99.90;;;;;;4877777;29;20454;-87
2022/01/11 04:55:17;;;;;;;143.05;38.60;;;-0.60;99.90;;;;;;4862197;29;20065;-87
2022/01/11 04:57:43;;;;;;;108.70;36.40;;;-0.60;99.90;;;;;;4876524;29;20060;-87
2022/01/11 05:00:10;;;;;;;174.23;42.40;;;-0.60;99.90;;;;;;4862453;29;20044;-87
2022/01/11 05:02:36;;;;;;;127.15;39.97;;;-0.60;99.90;;;;;;4876647;29;20181;-88
2022/01/11 05:05:02;;;;;;;137.77;38.25;;;-0.60;99.90;;;;;;4861623;29;20116;-87
2022/01/11 05:07:28;;;;;;;138.02;40.35;;;-0.60;99.90;;;;;;4861781;29;20068;-87
2022/01/11 05:09:54;;;;;;;137.32;40.70;;;-0.60;99.90;;;;;;4877132;29;20181;-87
2022/01/11 05:12:20;;;;;;;157.35;40.60;;;-0.60;99.90;;;;;;4860942;29;20079;-86
2022/01/11 05:14:46;;;;;;;86.38;35.38;;;-0.60;99.90;;;;;;4861648;29;20048;-88
2022/01/11 05:17:12;;;;;;;121.47;41.78;;;-0.60;99.90;;;;;;4877370;29;20513;-87
2022/01/11 05:19:37;;;;;;;109.10;36.28;;;-0.60;99.90;;;;;;4875843;29;20753;-87
2022/01/11 05:22:03;;;;;;;86.18;36.75;;;-0.60;99.90;;;;;;4861849;29;20135;-87
2022/01/11 05:24:29;;;;;;;100.45;37.13;;;-0.60;99.90;;;;;;4858834;29;20514;-89
2022/01/11 05:26:54;;;;;;;99.47;37.65;;;-0.60;99.90;;;;;;4858289;29;20053;-87
2022/01/11 05:29:20;;;;;;;100.15;37.42;;;-0.60;99.90;;;;;;4858396;29;20481;-87
2022/01/11 05:31:46;;;;;;;87.90;34.80;;;-0.60;99.90;;;;;;4858264;29;20049;-86
2022/01/11 05:34:11;;;;;;;89.13;35.78;;;-0.60;99.90;;;;;;4852557;29;20040;-89
2022/01/11 05:36:37;;;;;;;114.30;39.35;;;-0.60;99.90;;;;;;4880212;29;20062;-89
2022/01/11 05:39:04;;;;;;;116.75;39.38;;;-0.60;99.90;;;;;;4865797;29;20041;-88
2022/01/11 05:41:31;;;;;;;82.22;35.28;;;-0.60;99.90;;;;;;4857084;29;20426;-89
2022/01/11 05:43:57;;;;;;;87.32;37.13;;;-0.60;99.90;;;;;;4842858;29;20446;-88
2022/01/11 05:46:23;;;;;;;89.28;36.28;;;-0.60;99.90;;;;;;4842557;29;20048;-88
2022/01/11 05:48:48;;;;;;;106.43;40.53;;;-0.60;99.90;;;;;;4842603;29;20088;-88
2022/01/11 05:51:15;;;;;;;82.35;34.38;;;-0.60;99.90;;;;;;4843048;29;20045;-87
2022/01/11 05:53:41;;;;;;;88.35;36.22;;;-0.60;99.90;;;;;;4858134;29;20053;-88
2022/01/11 05:56:07;;;;;;;97.30;36.60;;;-0.70;99.90;;;;;;4855048;29;20080;-87
2022/01/11 05:58:33;;;;;;;90.85;35.15;;;-0.70;99.90;;;;;;4876272;29;20095;-88
2022/01/11 06:00:59;;;;;;;97.47;37.45;;;-0.70;99.90;;;;;;4860073;29;20057;-88
2022/01/11 06:03:25;;;;;;;84.13;34.35;;;-0.70;99.90;;;;;;4861946;29;20049;-89
2022/01/11 06:05:51;;;;;;;84.00;34.95;;;-0.60;99.90;;;;;;4861594;29;20378;-88
2022/01/11 06:08:16;;;;;;;91.97;35.90;;;-0.70;99.90;;;;;;4861066;29;20052;-89
2022/01/11 06:10:43;;;;;;;91.72;35.30;;;-0.70;99.90;;;;;;4877119;29;20139;-88
2022/01/11 06:13:10;;;;;;;89.75;35.90;;;-0.70;99.90;;;;;;4877488;29;20052;-88
2022/01/11 06:15:36;;;;;;;81.15;35.90;;;-0.70;99.90;;;;;;4875972;29;20504;-88
2022/01/11 06:18:02;;;;;;;97.43;36.55;;;-0.70;99.90;;;;;;4861726;29;20064;-88
2022/01/11 06:20:28;;;;;;;96.18;36.65;;;-0.70;99.90;;;;;;4876010;29;20048;-89
2022/01/11 06:22:53;;;;;;;93.40;36.28;;;-0.80;99.90;;;;;;4860662;29;20056;-88
2022/01/11 06:25:19;;;;;;;88.35;36.10;;;-0.80;99.90;;;;;;4861645;29;20067;-88
2022/01/11 06:27:45;;;;;;;98.47;35.28;;;-0.80;99.90;;;;;;4877078;29;20091;-87
2022/01/11 06:30:11;;;;;;;89.05;35.40;;;-0.80;99.90;;;;;;4876331;29;20057;-87
2022/01/11 06:32:38;;;;;;;81.68;32.65;;;-0.80;99.90;;;;;;4860188;29;20051;-89
2022/01/11 06:35:06;;;;;;;88.28;34.63;;;-0.80;99.90;;;;;;4861269;29;20059;-91
2022/01/11 06:37:31;;;;;;;91.82;36.67;;;-0.80;99.90;;;;;;4861377;29;20064;-90
2022/01/11 06:39:57;;;;;;;100.43;38.22;;;-0.80;99.90;;;;;;4862172;29;20045;-90
2022/01/11 06:42:23;;;;;;;92.30;34.45;;;-0.80;99.90;;;;;;4861729;29;20056;-89
2022/01/11 06:44:48;;;;;;;86.72;36.38;;;0.20;99.90;;;;;;4858054;29;20099;-89
2022/01/11 06:47:14;;;;;;;89.68;35.95;;;-0.80;99.90;;;;;;4874115;29;20086;-89
2022/01/11 06:49:40;;;;;;;89.88;35.33;;;-0.80;99.90;;;;;;4858194;29;20049;-89
2022/01/11 06:52:06;;;;;;;85.63;35.35;;;-0.80;99.90;;;;;;4858659;29;20435;-88
2022/01/11 06:54:32;;;;;;;105.35;38.60;;;-0.80;99.90;;;;;;4843608;29;20052;-90
2022/01/11 06:56:57;;;;;;;108.65;39.53;;;-0.80;99.90;;;;;;4858100;29;20413;-88
2022/01/11 06:59:23;;;;;;;99.10;36.00;;;-0.80;99.90;;;;;;4859165;29;20045;-91
2022/01/11 07:01:49;;;;;;;118.70;40.42;;;-0.80;99.90;;;;;;4858618;29;20056;-91
2022/01/11 07:04:15;;;;;;;107.85;38.00;;;-0.80;99.90;;;;;;4858311;29;20041;-91
2022/01/11 07:06:41;;;;;;;112.95;38.70;;;-0.70;99.90;;;;;;4874762;29;20063;-91
2022/01/11 07:09:07;;;;;;;122.45;40.63;;;-0.70;99.90;;;;;;4860993;29;20493;-89
2022/01/11 07:11:32;;;;;;;114.28;39.55;;;-0.70;99.90;;;;;;4862097;29;20061;-91
2022/01/11 07:14:01;;;;;;;123.50;41.00;;;-0.70;99.90;;;;;;4862241;29;20037;-90
2022/01/11 07:16:26;;;;;;;108.40;39.65;;;-0.70;99.90;;;;;;4862042;29;20055;-89
2022/01/11 07:18:52;;;;;;;117.25;39.78;;;-0.60;99.90;;;;;;4861494;29;20496;-90
2022/01/11 07:21:18;;;;;;;110.10;38.80;;;-0.70;99.90;;;;;;4861977;29;20053;-88
2022/01/11 07:23:44;;;;;;;110.18;38.58;;;-0.70;99.90;;;;;;4869565;29;20100;-89
2022/01/11 07:26:09;;;;;;;108.13;38.97;;;-0.60;99.90;;;;;;4879924;29;20405;-89
2022/01/11 07:28:35;;;;;;;127.35;41.30;;;-0.60;99.90;;;;;;4864898;29;20044;-89
2022/01/11 07:31:01;;;;;;;107.57;39.30;;;-0.70;99.90;;;;;;4879766;29;20048;-89
2022/01/11 07:33:27;;;;;;;105.22;38.92;;;-0.60;99.90;;;;;;4858720;29;20453;-89
2022/01/11 07:35:52;;;;;;;118.40;40.03;;;-0.60;99.90;;;;;;4855700;29;20051;-88
2022/01/11 07:38:18;;;;;;;117.38;39.38;;;-0.60;99.90;;;;;;4855048;29;20078;-89
2022/01/11 07:40:44;;;;;;;119.10;43.00;;;-0.60;99.90;;;;;;4870969;29;20059;-88
2022/01/11 07:43:09;;;;;;;115.10;41.40;;;-0.50;99.90;;;;;;4859071;29;20489;-88
2022/01/11 07:45:35;;;;;;;107.65;39.70;;;-0.50;99.90;;;;;;4852916;29;20064;-87
2022/01/11 07:48:01;;;;;;;115.45;42.20;;;-0.50;99.90;;;;;;4859204;29;20124;-88
2022/01/11 07:50:26;;;;;;;108.90;39.85;;;-0.50;99.90;;;;;;4857726;29;20045;-88
2022/01/11 07:52:52;;;;;;;106.85;38.63;;;-0.50;99.90;;;;;;4855748;29;20041;-88
2022/01/11 07:55:19;;;;;;;110.53;40.03;;;-0.40;99.90;;;;;;4860167;29;20059;-88
2022/01/11 07:57:46;;;;;;;99.88;37.70;;;-0.50;99.90;;;;;;4855441;29;20127;-84
2022/01/11 08:00:13;;;;;;;105.88;37.90;;;-0.40;99.90;;;;;;4871191;29;20488;-87
2022/01/11 08:02:38;;;;;;;100.57;37.00;;;-0.40;99.90;;;;;;4867233;29;20048;-87
2022/01/11 08:05:06;;;;;;;98.53;35.30;;;-0.40;99.90;;;;;;4856909;29;20044;-88
2022/01/11 08:07:32;;;;;;;103.57;38.92;;;-0.30;99.90;;;;;;4854010;29;20044;-91
2022/01/11 08:09:58;;;;;;;99.05;36.95;;;-0.20;99.90;;;;;;4872686;29;20056;-88
2022/01/11 08:12:24;;;;;;;105.88;37.53;;;-0.30;99.90;;;;;;4860620;29;20048;-88
2022/01/11 08:14:50;;;;;;;88.50;35.50;;;0.80;99.90;;;;;;4869761;29;20049;-88
2022/01/11 08:17:16;;;;;;;93.35;36.88;;;-0.30;99.90;;;;;;4856880;29;20049;-89
2022/01/11 08:19:44;;;;;;;94.95;36.78;;;-0.20;99.90;;;;;;4855965;29;20048;-87
2022/01/11 08:22:10;;;;;;;103.78;36.95;;;-0.20;99.90;;;;;;4860224;29;20052;-89
2022/01/11 08:24:38;;;;;;;106.22;38.13;;;-0.20;99.90;;;;;;4863608;29;20043;-87
2022/01/11 08:27:04;;;;;;;102.35;36.45;;;-0.10;99.90;;;;;;4862930;29;20089;-88
2022/01/11 08:29:30;;;;;;;105.35;37.63;;;-0.10;99.90;;;;;;4863117;29;20052;-87
2022/01/11 08:31:56;;;;;;;96.32;35.00;;;-0.10;99.90;;;;;;4869418;29;20052;-88
2022/01/11 08:34:21;;;;;;;103.15;36.20;;;-0.10;99.90;;;;;;4866201;29;20380;-91
2022/01/11 08:36:49;;;;;;;95.57;37.80;;;-0.10;99.90;;;;;;4874020;29;20049;-89
2022/01/11 08:39:16;;;;;;;103.65;37.88;;;0.00;99.90;;;;;;4861793;29;20143;-89
2022/01/11 08:41:41;;;;;;;98.00;37.90;;;0.00;99.90;;;;;;4845378;29;20098;-87
2022/01/11 08:44:11;;;;;;;91.25;35.72;;;0.00;99.90;;;;;;4843882;29;20085;-87
2022/01/11 08:46:40;;;;;;;88.97;36.17;;;0.00;99.90;;;;;;4862385;29;20485;-88
2022/01/11 08:49:06;;;;;;;89.20;35.13;;;0.60;99.90;;;;;;4864553;29;20568;-89
2022/01/11 08:51:32;;;;;;;95.10;35.33;;;0.80;99.90;;;;;;4862696;29;20055;-87
2022/01/11 08:53:57;;;;;;;98.85;34.55;;;0.00;99.90;;;;;;4861426;29;20044;-87
2022/01/11 08:56:23;;;;;;;92.35;36.20;;;0.40;99.90;;;;;;4867292;29;20503;-87
2022/01/11 08:58:49;;;;;;;89.00;34.75;;;0.00;99.90;;;;;;4862051;29;20055;-87
2022/01/11 09:01:14;;;;;;;84.25;35.13;;;0.00;99.90;;;;;;4880283;29;20130;-87
2022/01/11 09:03:40;;;;;;;86.55;33.50;;;0.00;99.90;;;;;;4879877;29;20408;-88
2022/01/11 09:06:08;;;;;;;84.32;33.15;;;0.00;99.90;;;;;;4881032;29;20160;-88
2022/01/11 09:08:35;;;;;;;86.25;34.25;;;0.00;99.90;;;;;;4881187;29;20036;-89
2022/01/11 09:11:01;;;;;;;74.93;32.90;;;0.70;99.90;;;;;;4880482;29;20397;-89
2022/01/11 09:13:27;;;;;;;74.53;31.98;;;0.70;99.90;;;;;;4881231;29;20528;-88
2022/01/11 09:15:53;;;;;;;76.97;32.17;;;0.10;99.90;;;;;;4896539;29;20143;-88
2022/01/11 09:18:19;;;;;;;78.80;32.28;;;0.00;99.90;;;;;;4896186;29;20040;-88
2022/01/11 09:20:44;;;;;;;76.25;31.15;;;0.00;99.90;;;;;;4880851;29;20491;-90
2022/01/11 09:23:10;;;;;;;77.85;32.35;;;0.00;99.90;;;;;;4875527;29;20068;-93
2022/01/11 09:25:36;;;;;;;84.05;31.48;;;0.10;99.90;;;;;;4859479;29;20049;-92
2022/01/11 09:28:02;;;;;;;79.80;32.33;;;0.10;99.90;;;;;;4859837;29;20049;-91
2022/01/11 09:30:28;;;;;;;74.10;30.58;;;0.10;99.90;;;;;;4859187;29;20142;-91
2022/01/11 09:32:54;;;;;;;70.25;31.58;;;0.10;99.90;;;;;;4861576;29;20147;-92
2022/01/11 09:35:20;;;;;;;73.72;31.17;;;0.10;99.90;;;;;;4859741;29;20109;-90
2022/01/11 09:37:46;;;;;;;70.53;29.92;;;0.30;99.90;;;;;;4860923;29;20045;-92
2022/01/11 09:40:13;;;;;;;64.72;28.38;;;0.20;99.90;;;;;;4859779;29;20118;-90
2022/01/11 09:42:39;;;;;;;64.25;28.42;;;0.10;99.90;;;;;;4859284;29;20053;-90
2022/01/11 09:45:06;;;;;;;62.95;28.05;;;0.20;99.90;;;;;;4859713;29;20511;-90
2022/01/11 09:47:32;;;;;;;59.33;26.73;;;0.20;99.90;;;;;;4860505;29;20055;-89
2022/01/11 09:49:58;;;;;;;62.72;27.38;;;0.20;99.90;;;;;;4860255;29;20049;-91
2022/01/11 09:52:26;;;;;;;58.72;25.65;;;0.20;99.90;;;;;;4859295;29;20080;-91
2022/01/11 09:54:52;;;;;;;58.05;26.67;;;0.20;99.90;;;;;;4859279;29;20045;-91
2022/01/11 09:57:18;;;;;;;57.45;26.05;;;0.20;99.90;;;;;;4859606;29;20063;-91
2022/01/11 09:59:45;;;;;;;55.22;25.17;;;0.20;99.90;;;;;;4858984;29;20085;-91
2022/01/11 10:02:12;;;;;;;51.55;24.77;;;0.20;99.90;;;;;;4859492;29;20049;-90
2022/01/11 10:04:38;;;;;;;49.72;23.50;;;0.20;99.90;;;;;;4859012;29;20045;-90
2022/01/11 10:07:07;;;;;;;49.28;23.75;;;0.20;99.90;;;;;;4858663;29;20141;-90
2022/01/11 10:09:44;;;;;;;47.75;22.45;;;0.20;99.90;;;;;;4859153;29;20052;-90
2022/01/11 10:12:12;;;;;;;46.20;22.83;;;0.30;99.90;;;;;;4859896;29;20116;-91
2022/01/11 10:14:43;;;;;;;43.92;22.20;;;0.90;99.90;;;;;;4860356;29;20049;-90
2022/01/11 10:17:15;;;;;;;56.40;24.13;;;0.30;99.90;;;;;;4859697;29;20084;-91
2022/01/11 10:19:43;;;;;;;47.10;22.75;;;0.30;99.90;;;;;;4843358;29;20108;-92
2022/01/11 10:22:13;;;;;;;43.35;21.70;;;0.30;99.90;;;;;;4874841;29;20052;-93
2022/01/11 10:24:43;;;;;;;41.33;20.88;;;0.30;99.90;;;;;;4874743;29;20489;-93
2022/01/11 10:27:15;;;;;;;48.83;21.27;;;0.30;99.90;;;;;;4874898;29;20124;-91
2022/01/11 10:29:44;;;;;;;39.85;21.30;;;0.30;99.90;;;;;;4874629;29;20045;-92
2022/01/11 10:32:18;;;;;;;45.42;21.83;;;0.30;99.90;;;;;;4858619;29;20596;-91
2022/01/11 10:34:47;;;;;;;44.88;20.80;;;0.30;99.90;;;;;;4858328;29;20590;-90
2022/01/11 10:37:14;;;;;;;45.30;21.85;;;0.30;99.90;;;;;;4858854;29;20053;-92
2022/01/11 10:39:44;;;;;;;42.42;21.67;;;0.30;99.90;;;;;;4860956;29;20053;-90
2022/01/11 10:42:27;;;;;;;43.97;21.20;;;0.30;99.90;;;;;;4858806;29;20497;-91
2022/01/11 10:44:58;;;;;;;39.42;21.27;;;0.30;99.90;;;;;;4858570;29;20045;-92
2022/01/11 10:47:33;;;;;;;38.35;20.65;;;0.30;99.90;;;;;;4873964;29;20053;-92
2022/01/11 10:50:18;;;;;;;42.35;21.77;;;0.30;99.90;;;;;;4859668;29;20049;-91
2022/01/11 10:52:44;;;;;;;41.10;20.98;;;0.30;99.90;;;;;;4860825;29;20029;-92
2022/01/11 10:55:15;;;;;;;43.92;22.38;;;0.30;99.90;;;;;;4860751;29;20051;-91
2022/01/11 10:57:43;;;;;;;40.88;21.92;;;0.40;99.90;;;;;;4858405;29;20048;-91
2022/01/11 11:00:11;;;;;;;40.72;20.35;;;0.40;99.90;;;;;;4859149;29;20045;-91
2022/01/11 11:02:39;;;;;;;41.55;21.33;;;0.40;99.90;;;;;;4874008;29;20125;-92
2022/01/11 11:05:19;;;;;;;41.60;22.27;;;0.50;99.90;;;;;;4858266;29;20045;-92
2022/01/11 11:07:59;;;;;;;43.03;23.10;;;0.60;99.90;;;;;;4844743;29;20489;-92
2022/01/11 11:10:33;;;;;;;42.95;23.10;;;0.70;99.90;;;;;;4875031;29;20068;-89
2022/01/11 11:13:00;;;;;;;37.45;21.05;;;0.80;99.90;;;;;;4859027;29;20336;-91
2022/01/11 11:15:30;;;;;;;41.95;23.15;;;0.80;99.90;;;;;;4858462;29;20044;-91
2022/01/11 11:17:55;;;;;;;39.35;21.13;;;0.90;99.90;;;;;;4858457;29;20045;-91
2022/01/11 11:20:21;;;;;;;36.83;20.35;;;0.90;99.90;;;;;;4858679;29;20075;-91
2022/01/11 11:22:47;;;;;;;33.13;19.83;;;0.90;99.90;;;;;;4852790;29;20124;-94
2022/01/11 11:25:13;;;;;;;40.47;21.00;;;1.00;99.90;;;;;;4847255;29;20109;-92
2022/01/11 11:27:39;;;;;;;37.05;19.67;;;1.10;99.90;;;;;;4840315;29;20407;-92
2022/01/11 11:30:05;;;;;;;39.10;20.10;;;1.10;99.90;;;;;;4840359;29;20049;-92
2022/01/11 11:32:33;;;;;;;34.15;19.90;;;1.10;99.90;;;;;;4842756;29;20048;-93
2022/01/11 11:34:58;;;;;;;35.08;19.20;;;1.20;99.90;;;;;;4853626;29;20136;-92
2022/01/11 11:37:31;;;;;;;37.53;19.65;;;1.30;99.90;;;;;;4850725;29;20151;-94
2022/01/11 11:40:00;;;;;;;36.10;20.42;;;1.40;99.90;;;;;;4859586;29;20055;-94
2022/01/11 11:42:27;;;;;;;41.17;22.20;;;1.50;99.90;;;;;;4848374;29;20398;-95
2022/01/11 11:44:56;;;;;;;39.45;20.95;;;1.70;99.90;;;;;;4855508;29;20083;-95
2022/01/11 11:47:31;;;;;;;33.72;19.35;;;1.80;99.90;;;;;;4849604;29;20528;-94
2022/01/11 11:50:00;;;;;;;33.15;20.20;;;2.10;99.90;;;;;;4853284;29;20048;-94
2022/01/11 11:52:34;;;;;;;32.67;19.55;;;2.20;99.90;;;;;;4849721;29;20045;-95
2022/01/11 11:55:05;;;;;;;36.42;20.52;;;2.90;99.90;;;;;;4863236;29;20382;-93
2022/01/11 11:57:33;;;;;;;31.10;18.58;;;2.90;99.90;;;;;;4854188;29;20057;-95
2022/01/11 12:00:03;;;;;;;32.97;18.92;;;2.60;99.90;;;;;;4859105;29;20052;-96
2022/01/11 12:02:33;;;;;;;33.75;19.23;;;2.40;99.90;;;;;;4854378;29;20937;-93
2022/01/11 12:04:58;;;;;;;34.22;19.38;;;2.40;99.90;;;;;;4852046;29;20048;-93
2022/01/11 12:07:32;;;;;;;31.83;19.00;;;3.50;99.90;;;;;;4855191;29;20122;-92
2022/01/11 12:09:59;;;;;;;33.45;18.60;;;2.40;99.90;;;;;;4858740;29;20124;-94
2022/01/11 12:12:39;;;;;;;31.05;18.58;;;2.80;99.90;;;;;;4865592;29;20053;-95
2022/01/11 12:15:32;;;;;;;34.58;18.88;;;2.30;99.90;;;;;;4852487;29;20108;-94
2022/01/11 12:17:57;;;;;;;30.33;18.10;;;2.20;99.90;;;;;;4851205;29;20084;-95
2022/01/11 12:20:45;;;;;;;31.60;17.77;;;2.20;99.90;;;;;;4850647;29;20076;-95
2022/01/11 12:23:20;;;;;;;29.77;17.65;;;2.10;99.90;;;;;;4852130;29;20050;-96
2022/01/11 12:25:52;;;;;;;31.63;18.33;;;2.10;99.90;;;;;;4845434;29;20048;-93